Time;durP1;ratioP1;P1;durP2;ratioP2;P2;SDS_P1;SDS_P2;PMS_P1;PMS_P2;Temp;Humidity;BMP_temperature;BMP_pressure;BME280_temperature;BME280_humidity;BME280_pressure;Samples;Min_cycle;Max_cycle;Signal;HPM_P1;HPM_P2
2022/03/09 00:00:07;;;;;;;10.60;8.13;;;5.30;40.60;;;;;;5027453;28;20707;-87
2022/03/09 00:02:33;;;;;;;7.40;6.70;;;5.40;40.90;;;;;;5030113;28;20552;-87
2022/03/09 00:04:58;;;;;;;8.43;7.53;;;5.40;41.20;;;;;;5012376;28;20194;-87
2022/03/09 00:07:26;;;;;;;8.37;7.10;;;5.30;40.50;;;;;;5013639;28;20733;-87
2022/03/09 00:09:52;;;;;;;9.47;7.90;;;5.30;41.20;;;;;;5015912;28;20194;-86
2022/03/09 00:12:17;;;;;;;7.63;6.83;;;5.20;41.20;;;;;;5012519;28;20208;-88
2022/03/09 00:14:43;;;;;;;7.17;6.53;;;5.30;41.80;;;;;;5013181;28;20260;-88
2022/03/09 00:17:09;;;;;;;7.90;7.10;;;5.20;40.90;;;;;;5020630;28;20197;-88
2022/03/09 00:19:35;;;;;;;8.30;7.47;;;5.20;41.50;;;;;;5013241;28;20783;-87
2022/03/09 00:22:01;;;;;;;8.43;7.63;;;5.10;41.80;;;;;;5009183;28;20229;-87
2022/03/09 00:24:26;;;;;;;8.97;7.47;;;4.70;42.90;;;;;;5011695;28;20205;-87
2022/03/09 00:26:52;;;;;;;10.27;7.67;;;4.40;44.70;;;;;;4991111;28;20214;-87
2022/03/09 00:29:18;;;;;;;9.37;7.17;;;4.40;45.10;;;;;;5010096;28;20201;-87
2022/03/09 00:31:43;;;;;;;8.97;7.50;;;4.30;45.40;;;;;;5009791;28;20219;-87
2022/03/09 00:34:09;;;;;;;8.30;7.17;;;4.40;45.20;;;;;;5009498;28;20186;-87
2022/03/09 00:36:34;;;;;;;8.80;7.30;;;4.40;44.80;;;;;;5011758;28;20194;-87
2022/03/09 00:39:00;;;;;;;10.17;8.53;;;4.40;44.90;;;;;;5010392;28;20617;-88
2022/03/09 00:41:26;;;;;;;8.73;7.20;;;4.10;46.10;;;;;;5009499;28;20239;-87
2022/03/09 00:43:52;;;;;;;9.20;7.60;;;4.00;47.60;;;;;;5011696;28;20202;-87
2022/03/09 00:46:17;;;;;;;11.40;9.27;;;3.80;47.40;;;;;;5008451;28;20201;-87
2022/03/09 00:48:43;;;;;;;10.70;7.67;;;3.90;47.60;;;;;;5010529;28;20276;-87
2022/03/09 00:51:08;;;;;;;9.53;7.43;;;3.90;47.60;;;;;;5020383;28;20272;-87
2022/03/09 00:53:34;;;;;;;8.67;7.77;;;4.00;47.80;;;;;;5020121;28;20197;-88
2022/03/09 00:56:00;;;;;;;8.60;7.10;;;4.00;47.70;;;;;;5008860;28;20213;-87
2022/03/09 00:58:25;;;;;;;7.87;6.93;;;4.00;47.70;;;;;;5011957;28;20197;-88
2022/03/09 01:00:51;;;;;;;9.30;7.00;;;4.10;48.00;;;;;;5007105;28;20631;-87
2022/03/09 01:03:17;;;;;;;8.33;7.23;;;4.10;47.90;;;;;;5014180;28;20678;-87
2022/03/09 01:05:43;;;;;;;8.57;7.67;;;4.00;48.00;;;;;;5009770;28;20201;-87
2022/03/09 01:08:08;;;;;;;9.53;8.50;;;4.10;48.20;;;;;;4994547;28;20204;-87
2022/03/09 01:10:34;;;;;;;9.00;8.10;;;4.10;49.50;;;;;;5004623;28;20760;-87
2022/03/09 01:13:00;;;;;;;7.77;6.90;;;3.50;50.20;;;;;;5000971;28;20775;-87
2022/03/09 01:15:26;;;;;;;10.90;8.40;;;3.50;51.70;;;;;;4999066;28;20309;-86
2022/03/09 01:17:51;;;;;;;8.77;7.83;;;3.50;51.70;;;;;;5007640;28;20255;-87
2022/03/09 01:20:17;;;;;;;13.13;7.50;;;3.60;51.50;;;;;;5009211;28;20217;-87
2022/03/09 01:22:43;;;;;;;9.20;8.20;;;3.70;51.50;;;;;;5009756;28;20190;-87
2022/03/09 01:25:10;;;;;;;8.50;7.20;;;3.70;51.40;;;;;;5009443;28;20325;-87
2022/03/09 01:27:36;;;;;;;8.90;7.43;;;3.80;51.30;;;;;;5002995;28;20275;-87
2022/03/09 01:30:02;;;;;;;8.70;7.87;;;3.70;51.10;;;;;;5014330;28;20671;-87
2022/03/09 01:32:28;;;;;;;8.93;7.47;;;3.70;51.40;;;;;;5012258;28;20193;-87
2022/03/09 01:34:54;;;;;;;9.37;7.80;;;3.70;51.20;;;;;;5013746;28;20806;-87
2022/03/09 01:37:20;;;;;;;9.27;7.53;;;3.60;51.40;;;;;;5012021;28;20194;-87
2022/03/09 01:39:45;;;;;;;9.60;8.10;;;3.60;51.50;;;;;;5013292;28;20276;-87
2022/03/09 01:42:11;;;;;;;8.40;7.60;;;3.70;51.40;;;;;;5013753;28;20201;-88
2022/03/09 01:44:37;;;;;;;8.43;7.63;;;3.70;51.50;;;;;;5001764;28;20213;-87
2022/03/09 01:47:03;;;;;;;8.33;7.53;;;3.70;51.10;;;;;;5013185;28;20213;-87
2022/03/09 01:49:28;;;;;;;8.03;6.80;;;3.60;51.90;;;;;;5014255;28;20202;-87
2022/03/09 01:51:57;;;;;;;7.87;7.07;;;3.60;51.40;;;;;;5008812;28;20280;-87
2022/03/09 01:54:24;;;;;;;7.30;6.57;;;3.50;51.00;;;;;;5014296;28;20194;-87
2022/03/09 01:56:49;;;;;;;7.40;6.70;;;3.50;51.00;;;;;;5023514;28;20216;-89
2022/03/09 01:59:16;;;;;;;8.47;7.27;;;3.50;51.20;;;;;;5015073;28;20201;-87
2022/03/09 02:01:43;;;;;;;10.37;6.83;;;3.50;50.60;;;;;;5029312;28;20726;-88
2022/03/09 02:04:09;;;;;;;7.90;7.07;;;3.30;50.40;;;;;;5013618;28;20192;-87
2022/03/09 02:06:36;;;;;;;7.63;6.93;;;3.30;51.30;;;;;;4995717;28;20205;-87
2022/03/09 02:11:48;;;;;;;8.70;6.90;;;3.30;51.40;;;;;;5014005;28;20228;-87
2022/03/09 02:14:29;;;;;;;7.87;7.17;;;3.30;52.00;;;;;;5012174;28;20198;-87
2022/03/09 02:16:57;;;;;;;8.63;7.20;;;3.30;51.60;;;;;;5008232;28;20205;-87
2022/03/09 02:19:22;;;;;;;9.63;7.50;;;3.20;51.20;;;;;;5013073;28;20276;-88
2022/03/09 02:21:51;;;;;;;8.23;7.30;;;3.20;52.20;;;;;;5013461;28;20303;-88
2022/03/09 02:24:17;;;;;;;9.73;7.43;;;3.30;52.10;;;;;;5013810;28;20280;-87
2022/03/09 02:26:42;;;;;;;8.77;7.33;;;3.30;52.10;;;;;;5009906;28;20773;-88
2022/03/09 02:29:08;;;;;;;8.60;7.70;;;3.20;52.50;;;;;;5012431;28;20206;-87
2022/03/09 02:31:34;;;;;;;8.27;7.30;;;3.20;52.70;;;;;;5010777;28;20225;-87
2022/03/09 02:34:00;;;;;;;9.83;7.60;;;3.20;52.70;;;;;;5012792;28;20234;-87
2022/03/09 02:36:26;;;;;;;8.27;7.37;;;3.20;52.40;;;;;;5013991;28;20241;-87
2022/03/09 02:38:51;;;;;;;8.97;7.53;;;3.10;52.80;;;;;;5011934;28;20613;-87
2022/03/09 02:41:17;;;;;;;10.87;7.60;;;3.10;53.10;;;;;;5026482;28;20289;-88
2022/03/09 02:43:43;;;;;;;10.13;7.50;;;3.10;53.10;;;;;;5011384;28;20277;-87
2022/03/09 02:46:09;;;;;;;10.10;7.73;;;3.10;53.10;;;;;;5012543;28;20205;-87
2022/03/09 02:48:34;;;;;;;8.47;7.47;;;3.10;53.20;;;;;;5011705;28;21041;-87
2022/03/09 02:51:00;;;;;;;8.50;7.63;;;3.10;53.10;;;;;;5029598;28;20732;-87
2022/03/09 02:53:26;;;;;;;8.93;7.77;;;3.00;53.30;;;;;;5011958;28;20301;-87
2022/03/09 02:55:51;;;;;;;8.67;7.27;;;3.00;53.30;;;;;;5018460;28;20209;-88
2022/03/09 02:58:17;;;;;;;9.10;7.00;;;3.00;53.20;;;;;;5025333;28;20201;-88
2022/03/09 03:00:42;;;;;;;8.83;7.93;;;2.90;54.40;;;;;;5008120;28;20612;-87
2022/03/09 03:03:08;;;;;;;8.47;7.43;;;2.90;54.20;;;;;;5012186;28;20186;-87
2022/03/09 03:05:34;;;;;;;8.73;7.40;;;2.90;54.60;;;;;;5001867;28;20193;-88
2022/03/09 03:07:59;;;;;;;8.00;7.17;;;2.80;54.40;;;;;;5002874;28;20661;-88
2022/03/09 03:10:25;;;;;;;8.67;7.50;;;2.80;54.40;;;;;;5011132;28;20226;-87
2022/03/09 03:12:50;;;;;;;8.97;7.43;;;2.80;54.40;;;;;;5005974;28;20206;-87
2022/03/09 03:15:16;;;;;;;9.13;7.03;;;2.80;54.50;;;;;;5010890;28;20221;-87
2022/03/09 03:17:42;;;;;;;9.00;7.57;;;2.80;54.70;;;;;;5011699;28;20204;-88
2022/03/09 03:20:08;;;;;;;9.17;7.50;;;2.70;54.80;;;;;;5012325;28;20708;-86
2022/03/09 03:22:33;;;;;;;10.30;7.73;;;2.70;54.70;;;;;;5010645;28;20205;-88
2022/03/09 03:24:59;;;;;;;8.83;7.93;;;2.60;55.10;;;;;;5007259;28;20190;-87
2022/03/09 03:27:25;;;;;;;9.37;7.57;;;2.60;55.10;;;;;;5008720;28;20196;-86
2022/03/09 03:29:50;;;;;;;8.67;7.63;;;2.60;55.20;;;;;;5011223;28;20193;-86
2022/03/09 03:32:16;;;;;;;9.20;7.43;;;2.60;55.20;;;;;;5010742;28;20200;-86
2022/03/09 03:34:42;;;;;;;8.53;7.00;;;2.60;55.20;;;;;;5016369;28;20656;-87
2022/03/09 03:37:07;;;;;;;7.90;7.00;;;2.60;55.40;;;;;;5012367;28;20821;-86
2022/03/09 03:39:34;;;;;;;9.17;8.13;;;2.50;55.60;;;;;;5012102;28;20196;-87
2022/03/09 03:41:59;;;;;;;10.13;9.07;;;2.50;55.80;;;;;;5010380;28;20209;-86
2022/03/09 03:44:25;;;;;;;8.73;7.67;;;2.40;56.30;;;;;;5015373;28;20190;-87
2022/03/09 03:46:51;;;;;;;9.17;8.00;;;2.40;56.20;;;;;;5024793;28;20206;-87
2022/03/09 03:49:16;;;;;;;8.77;7.87;;;2.40;56.50;;;;;;5021262;28;20200;-87
2022/03/09 03:51:42;;;;;;;10.90;8.73;;;2.30;56.70;;;;;;5012971;28;20213;-86
2022/03/09 03:54:09;;;;;;;9.57;8.57;;;2.30;57.60;;;;;;5024909;28;20240;-87
2022/03/09 03:56:34;;;;;;;9.40;8.13;;;2.30;57.10;;;;;;5020263;28;20216;-87
2022/03/09 03:59:00;;;;;;;9.37;8.47;;;2.30;57.20;;;;;;5019992;28;20182;-86
2022/03/09 04:01:26;;;;;;;9.70;8.70;;;2.40;57.00;;;;;;5018693;28;20719;-86
2022/03/09 04:03:52;;;;;;;9.03;8.13;;;2.40;56.70;;;;;;5022174;28;20213;-86
2022/03/09 04:06:18;;;;;;;11.10;9.43;;;2.40;56.50;;;;;;5019829;28;20240;-87
2022/03/09 04:08:43;;;;;;;9.50;8.53;;;2.40;57.30;;;;;;5014722;28;20185;-87
2022/03/09 04:11:09;;;;;;;9.60;8.60;;;2.30;56.40;;;;;;5023832;28;20244;-90
2022/03/09 04:13:35;;;;;;;12.80;8.63;;;2.20;56.90;;;;;;5028626;28;20224;-86
2022/03/09 04:16:01;;;;;;;8.90;8.00;;;2.10;57.20;;;;;;5017020;28;20220;-86
2022/03/09 04:18:27;;;;;;;10.00;9.00;;;2.00;58.00;;;;;;5017176;28;20405;-86
2022/03/09 04:20:52;;;;;;;10.77;8.23;;;2.00;58.00;;;;;;5019611;28;20229;-87
2022/03/09 04:23:18;;;;;;;9.93;8.37;;;2.00;58.30;;;;;;5002964;28;20257;-87
2022/03/09 04:25:43;;;;;;;13.30;9.13;;;2.00;57.90;;;;;;5016904;28;20197;-87
2022/03/09 04:28:09;;;;;;;11.27;7.93;;;1.90;58.00;;;;;;5018654;28;20296;-87
2022/03/09 04:30:35;;;;;;;10.80;8.00;;;2.00;58.00;;;;;;5030675;28;20233;-86
2022/03/09 04:33:01;;;;;;;9.67;8.27;;;2.00;57.80;;;;;;5015242;28;20308;-86
2022/03/09 04:35:27;;;;;;;9.07;8.07;;;1.90;57.80;;;;;;5024998;28;20221;-86
2022/03/09 04:37:53;;;;;;;10.30;8.67;;;1.90;57.90;;;;;;5014923;28;20243;-86
2022/03/09 04:40:18;;;;;;;10.10;8.23;;;2.00;57.60;;;;;;5014222;28;20307;-86
2022/03/09 04:42:44;;;;;;;10.70;8.80;;;2.00;57.70;;;;;;4997316;28;20236;-87
2022/03/09 04:45:10;;;;;;;11.27;9.27;;;2.00;57.30;;;;;;5013885;28;20197;-87
2022/03/09 04:47:36;;;;;;;9.63;8.07;;;2.10;57.20;;;;;;5014498;28;20205;-87
2022/03/09 04:50:02;;;;;;;13.10;9.53;;;2.10;57.20;;;;;;5023932;28;20263;-88
2022/03/09 04:52:28;;;;;;;10.20;9.17;;;2.10;57.20;;;;;;5026393;28;20185;-88
2022/03/09 04:54:53;;;;;;;12.47;9.07;;;2.10;57.40;;;;;;5016483;28;20240;-87
2022/03/09 04:57:19;;;;;;;10.73;9.20;;;2.10;57.50;;;;;;5015389;28;20197;-88
2022/03/09 04:59:45;;;;;;;9.80;8.67;;;2.10;57.20;;;;;;5022995;28;20194;-87
2022/03/09 05:02:11;;;;;;;10.07;8.83;;;2.10;57.10;;;;;;5007429;28;20196;-88
2022/03/09 05:04:37;;;;;;;10.90;9.70;;;2.10;57.40;;;;;;5019013;28;20272;-88
2022/03/09 05:07:03;;;;;;;10.90;9.10;;;2.10;57.60;;;;;;5024217;28;20190;-87
2022/03/09 05:09:28;;;;;;;13.87;9.33;;;2.10;57.90;;;;;;5020039;28;20182;-87
2022/03/09 05:11:54;;;;;;;10.20;8.77;;;2.10;57.70;;;;;;5018325;28;20638;-88
2022/03/09 05:14:20;;;;;;;9.67;8.60;;;2.00;57.80;;;;;;5030506;28;20178;-87
2022/03/09 05:16:45;;;;;;;9.80;8.80;;;1.90;57.90;;;;;;5022085;28;20197;-86
2022/03/09 05:19:11;;;;;;;12.13;10.00;;;1.90;58.00;;;;;;5018271;28;20194;-86
2022/03/09 05:21:37;;;;;;;11.70;8.87;;;1.90;58.00;;;;;;5019868;28;20213;-88
2022/03/09 05:24:03;;;;;;;11.67;8.63;;;1.90;58.10;;;;;;5023503;28;20697;-87
2022/03/09 05:26:28;;;;;;;9.77;8.77;;;1.90;57.90;;;;;;5019006;28;20239;-87
2022/03/09 05:28:56;;;;;;;11.83;9.20;;;1.90;57.70;;;;;;5018724;28;20198;-87
2022/03/09 05:31:22;;;;;;;10.90;9.23;;;1.80;57.30;;;;;;5017756;28;20225;-87
2022/03/09 05:33:48;;;;;;;13.60;8.97;;;1.70;58.30;;;;;;5013848;28;20237;-87
2022/03/09 05:36:14;;;;;;;10.47;8.60;;;1.60;58.50;;;;;;5018312;28;20256;-87
2022/03/09 05:38:39;;;;;;;9.67;8.67;;;1.60;59.90;;;;;;5019088;28;20177;-88
2022/03/09 05:41:05;;;;;;;10.67;8.67;;;1.40;59.10;;;;;;5010328;28;20206;-88
2022/03/09 05:43:32;;;;;;;29.43;19.83;;;1.30;60.70;;;;;;5020398;28;20201;-86
2022/03/09 05:45:58;;;;;;;10.30;8.93;;;1.00;61.20;;;;;;5023357;28;20243;-88
2022/03/09 05:48:23;;;;;;;12.17;9.77;;;1.00;61.90;;;;;;5015432;28;20197;-87
2022/03/09 05:50:49;;;;;;;16.03;10.40;;;0.90;61.20;;;;;;5014987;28;20220;-88
2022/03/09 05:53:15;;;;;;;11.27;8.70;;;1.00;61.00;;;;;;5016487;28;20213;-88
2022/03/09 05:55:41;;;;;;;9.90;8.40;;;1.00;61.10;;;;;;5016833;28;20224;-87
2022/03/09 05:58:06;;;;;;;10.73;8.47;;;1.10;61.20;;;;;;5014544;28;20224;-88
2022/03/09 06:00:32;;;;;;;11.33;8.77;;;1.20;60.90;;;;;;5016302;28;20288;-88
2022/03/09 06:02:58;;;;;;;10.60;8.87;;;1.30;60.40;;;;;;5015559;28;20274;-88
2022/03/09 06:05:23;;;;;;;11.27;10.17;;;1.30;60.10;;;;;;5017686;28;20194;-89
2022/03/09 06:07:49;;;;;;;11.53;9.73;;;1.30;59.70;;;;;;5012213;28;20190;-89
2022/03/09 06:10:15;;;;;;;12.20;9.37;;;1.30;60.10;;;;;;5009480;28;20225;-88
2022/03/09 06:12:41;;;;;;;11.63;9.73;;;1.30;59.90;;;;;;5013278;28;20198;-88
2022/03/09 06:15:07;;;;;;;14.37;9.87;;;1.40;59.70;;;;;;5005042;28;20209;-89
2022/03/09 06:17:41;;;;;;;11.43;9.30;;;1.40;59.50;;;;;;5013028;28;20264;-89
2022/03/09 06:20:08;;;;;;;13.00;8.70;;;1.40;59.50;;;;;;5016798;28;20941;-88
2022/03/09 06:22:33;;;;;;;12.63;9.73;;;1.40;59.60;;;;;;5013194;28;20193;-88
2022/03/09 06:24:59;;;;;;;11.90;9.07;;;1.30;59.80;;;;;;5019284;28;20201;-89
2022/03/09 06:27:25;;;;;;;13.00;10.00;;;1.30;60.70;;;;;;5010109;28;20229;-89
2022/03/09 06:29:50;;;;;;;10.50;9.10;;;1.30;60.00;;;;;;5011520;28;20249;-89
2022/03/09 06:32:16;;;;;;;10.43;9.13;;;1.30;60.10;;;;;;5018589;28;20212;-87
2022/03/09 06:34:41;;;;;;;10.20;8.93;;;1.20;60.20;;;;;;5018123;28;20744;-86
2022/03/09 06:37:07;;;;;;;12.47;9.53;;;1.20;60.20;;;;;;5017874;28;20288;-89
2022/03/09 06:39:33;;;;;;;16.87;11.00;;;1.20;61.00;;;;;;5021401;28;20192;-91
2022/03/09 06:41:58;;;;;;;11.60;8.80;;;1.10;61.50;;;;;;5017085;28;20624;-87
2022/03/09 06:44:24;;;;;;;11.83;10.40;;;1.10;62.20;;;;;;5010288;28;20197;-90
2022/03/09 06:46:50;;;;;;;12.07;9.50;;;1.20;61.20;;;;;;5020066;28;20234;-86
2022/03/09 06:49:16;;;;;;;11.23;10.03;;;1.20;61.00;;;;;;5009548;28;20252;-88
2022/03/09 06:51:41;;;;;;;12.00;9.47;;;1.30;60.90;;;;;;5025921;28;20273;-89
2022/03/09 06:54:07;;;;;;;13.17;9.97;;;1.40;60.60;;;;;;5017780;28;20277;-88
2022/03/09 06:56:33;;;;;;;13.67;9.97;;;1.40;60.50;;;;;;5022432;28;20221;-88
2022/03/09 06:58:58;;;;;;;11.73;9.23;;;1.50;60.30;;;;;;5016937;28;20194;-86
2022/03/09 07:01:24;;;;;;;11.97;9.43;;;1.50;60.10;;;;;;5000214;28;20217;-88
2022/03/09 07:03:49;;;;;;;16.63;10.27;;;1.50;60.90;;;;;;5015974;28;20197;-88
2022/03/09 07:06:15;;;;;;;10.57;9.37;;;1.50;60.90;;;;;;5018324;28;20204;-87
2022/03/09 07:08:41;;;;;;;10.80;9.70;;;1.30;61.90;;;;;;5017378;28;20205;-87
2022/03/09 07:11:06;;;;;;;13.57;10.57;;;1.40;61.70;;;;;;5013883;28;20575;-88
2022/03/09 07:13:32;;;;;;;11.47;9.70;;;1.50;61.30;;;;;;5015142;28;20193;-87
2022/03/09 07:15:58;;;;;;;12.90;10.40;;;1.60;61.00;;;;;;5014082;28;20301;-87
2022/03/09 07:18:23;;;;;;;12.10;10.20;;;1.60;60.50;;;;;;5008845;28;20228;-87
2022/03/09 07:20:49;;;;;;;10.97;9.07;;;1.70;60.40;;;;;;5004884;28;20210;-87
2022/03/09 07:23:15;;;;;;;11.73;9.63;;;1.80;60.60;;;;;;5014064;28;20194;-87
2022/03/09 07:25:43;;;;;;;14.83;9.53;;;1.80;60.40;;;;;;5029061;28;20260;-87
2022/03/09 07:28:09;;;;;;;14.80;10.77;;;1.90;61.00;;;;;;5014049;28;20194;-87
2022/03/09 07:30:35;;;;;;;13.90;10.77;;;1.90;61.10;;;;;;5016206;28;20228;-88
2022/03/09 07:33:00;;;;;;;17.17;10.97;;;2.00;61.50;;;;;;5019161;28;20197;-88
2022/03/09 07:35:26;;;;;;;11.57;9.20;;;2.00;61.00;;;;;;5031772;28;20240;-85
2022/03/09 07:37:52;;;;;;;12.63;10.10;;;2.10;61.40;;;;;;5033274;28;20596;-86
2022/03/09 07:40:18;;;;;;;13.63;9.90;;;2.10;62.10;;;;;;5019977;28;20712;-89
2022/03/09 07:42:44;;;;;;;15.70;10.00;;;2.10;62.10;;;;;;5009480;28;20197;-87
2022/03/09 07:45:10;;;;;;;12.40;10.27;;;2.10;62.00;;;;;;5017327;28;20205;-87
2022/03/09 07:47:36;;;;;;;14.27;9.90;;;2.00;62.60;;;;;;4998935;28;20385;-88
2022/03/09 07:50:04;;;;;;;10.57;9.47;;;2.10;62.80;;;;;;5013962;28;20232;-87
2022/03/09 07:52:30;;;;;;;12.17;10.30;;;2.40;62.30;;;;;;5019082;28;20614;-87
2022/03/09 07:54:55;;;;;;;12.20;9.93;;;2.40;62.30;;;;;;5024462;28;20308;-87
2022/03/09 07:57:21;;;;;;;11.57;9.97;;;2.50;62.00;;;;;;5022478;28;20198;-87
2022/03/09 07:59:47;;;;;;;13.57;10.40;;;2.60;61.70;;;;;;5017922;28;20264;-88
2022/03/09 08:02:12;;;;;;;12.40;9.90;;;2.70;61.50;;;;;;5020037;28;20782;-86
2022/03/09 08:04:39;;;;;;;12.07;10.10;;;2.80;60.60;;;;;;5028564;28;20205;-85
2022/03/09 08:07:04;;;;;;;13.70;10.03;;;2.80;60.40;;;;;;5027655;28;20273;-84
2022/03/09 08:09:30;;;;;;;15.07;11.10;;;2.70;61.10;;;;;;5006897;28;20222;-87
2022/03/09 08:11:56;;;;;;;12.57;10.50;;;2.80;60.40;;;;;;5001202;28;20290;-86
2022/03/09 08:14:21;;;;;;;15.27;10.23;;;2.90;59.50;;;;;;5019262;28;20185;-87
2022/03/09 08:16:48;;;;;;;15.37;10.17;;;3.00;58.40;;;;;;5019789;28;20217;-83
2022/03/09 08:19:14;;;;;;;11.20;10.07;;;3.10;58.30;;;;;;5019430;28;20263;-86
2022/03/09 08:21:40;;;;;;;13.77;10.50;;;3.20;57.80;;;;;;5019077;28;20705;-86
2022/03/09 08:24:06;;;;;;;17.97;11.50;;;3.20;57.10;;;;;;5021221;28;20898;-86
2022/03/09 08:26:32;;;;;;;15.00;9.93;;;3.20;56.50;;;;;;5032013;28;20193;-85
2022/03/09 08:28:58;;;;;;;15.17;10.83;;;3.20;56.40;;;;;;5025361;28;20216;-87
2022/03/09 08:31:24;;;;;;;15.97;10.57;;;3.20;56.50;;;;;;5034435;28;20224;-86
2022/03/09 08:33:49;;;;;;;17.07;11.50;;;3.30;56.70;;;;;;5016592;28;20217;-86
2022/03/09 08:36:15;;;;;;;14.63;11.77;;;3.30;56.70;;;;;;5023101;28;20263;-86
2022/03/09 08:38:41;;;;;;;16.53;11.60;;;3.30;57.60;;;;;;5018633;28;20228;-86
2022/03/09 08:41:07;;;;;;;19.53;13.70;;;3.20;58.10;;;;;;5016858;28;20237;-86
2022/03/09 08:43:33;;;;;;;17.13;12.70;;;3.30;58.50;;;;;;5018462;28;20214;-85
2022/03/09 08:45:58;;;;;;;16.43;11.43;;;3.30;58.50;;;;;;5021672;28;20209;-86
2022/03/09 08:48:27;;;;;;;20.57;13.67;;;3.40;57.80;;;;;;5021887;28;20725;-85
2022/03/09 08:50:54;;;;;;;21.63;13.23;;;3.50;56.90;;;;;;5019051;28;20285;-86
2022/03/09 08:53:20;;;;;;;20.47;13.60;;;3.50;57.20;;;;;;5011932;28;20201;-86
2022/03/09 08:55:46;;;;;;;17.07;13.10;;;3.50;56.50;;;;;;5015347;28;20270;-86
2022/03/09 08:58:12;;;;;;;16.83;12.30;;;3.70;57.30;;;;;;5007357;28;20277;-86
2022/03/09 09:00:37;;;;;;;19.50;13.00;;;3.70;57.30;;;;;;5012533;28;20225;-87
2022/03/09 09:03:03;;;;;;;16.93;13.00;;;3.80;57.00;;;;;;5007550;28;20256;-86
2022/03/09 09:05:29;;;;;;;17.30;12.87;;;3.80;57.10;;;;;;5013970;28;20201;-86
2022/03/09 09:07:55;;;;;;;15.87;13.40;;;3.90;56.80;;;;;;5011784;28;20197;-86
2022/03/09 09:10:21;;;;;;;16.73;12.67;;;4.00;56.80;;;;;;4997284;28;20300;-86
2022/03/09 09:12:47;;;;;;;15.30;11.57;;;4.30;54.70;;;;;;5008023;28;20244;-86
2022/03/09 09:15:13;;;;;;;14.20;12.50;;;4.30;53.90;;;;;;5015210;28;20723;-86
2022/03/09 09:17:39;;;;;;;17.03;12.27;;;4.30;53.60;;;;;;5012711;28;20281;-86
2022/03/09 09:20:06;;;;;;;14.53;12.30;;;4.40;53.00;;;;;;5008353;28;20237;-86
2022/03/09 09:22:32;;;;;;;15.43;12.47;;;4.60;52.70;;;;;;5014361;28;20241;-86
2022/03/09 09:24:58;;;;;;;16.40;12.93;;;4.70;54.70;;;;;;5016794;28;20185;-86
2022/03/09 09:27:23;;;;;;;19.53;12.73;;;4.90;53.70;;;;;;5011197;28;20197;-85
2022/03/09 09:29:49;;;;;;;20.90;12.97;;;5.10;53.10;;;;;;5006068;28;20190;-86
2022/03/09 09:32:16;;;;;;;15.67;12.00;;;5.30;53.80;;;;;;5017640;28;20201;-86
2022/03/09 09:34:41;;;;;;;17.73;12.17;;;5.40;53.10;;;;;;5012656;28;20202;-86
2022/03/09 09:37:07;;;;;;;14.73;12.37;;;5.70;52.20;;;;;;5002293;28;20190;-87
2022/03/09 09:39:33;;;;;;;19.77;17.50;;;5.80;51.20;;;;;;5016440;28;20233;-86
2022/03/09 09:41:59;;;;;;;16.43;11.93;;;6.00;51.30;;;;;;5016676;28;20217;-86
2022/03/09 09:44:25;;;;;;;16.10;12.87;;;6.20;50.90;;;;;;5011561;28;20189;-86
2022/03/09 09:46:53;;;;;;;20.37;13.47;;;6.20;50.40;;;;;;5010332;28;20212;-86
2022/03/09 09:49:25;;;;;;;15.30;12.73;;;6.20;50.10;;;;;;5017696;28;20186;-86
2022/03/09 09:51:53;;;;;;;17.20;12.53;;;6.30;49.60;;;;;;5013842;28;20213;-86
2022/03/09 09:54:21;;;;;;;14.47;12.23;;;6.40;49.00;;;;;;5025645;28;20183;-86
2022/03/09 09:56:47;;;;;;;17.23;13.37;;;6.60;48.10;;;;;;5027867;28;20232;-86
2022/03/09 09:59:12;;;;;;;16.37;12.47;;;6.70;46.80;;;;;;5018786;28;20198;-86
2022/03/09 10:01:40;;;;;;;18.40;12.60;;;7.10;45.90;;;;;;5011854;28;20217;-86
2022/03/09 10:04:07;;;;;;;13.60;12.10;;;7.30;45.10;;;;;;5019011;28;20185;-86
2022/03/09 10:06:33;;;;;;;18.43;12.40;;;7.40;45.00;;;;;;5015830;28;20212;-86
2022/03/09 10:09:13;;;;;;;16.23;12.37;;;7.80;43.80;;;;;;5019090;28;20212;-86
2022/03/09 10:11:51;;;;;;;14.57;12.17;;;8.00;42.80;;;;;;5018548;28;20209;-86
2022/03/09 10:14:47;;;;;;;15.07;12.63;;;8.30;41.60;;;;;;5013132;28;20224;-86
2022/03/09 10:17:29;;;;;;;15.20;11.93;;;8.40;41.30;;;;;;5011954;28;20224;-86
2022/03/09 10:19:58;;;;;;;15.97;11.90;;;8.60;40.20;;;;;;5018212;28;20451;-86
2022/03/09 10:22:37;;;;;;;14.40;11.73;;;8.60;39.10;;;;;;5016356;28;20195;-86
2022/03/09 10:25:11;;;;;;;14.10;11.97;;;8.60;39.30;;;;;;5020190;28;20178;-86
2022/03/09 10:27:41;;;;;;;16.97;12.30;;;8.80;38.50;;;;;;5017593;28;20193;-86
2022/03/09 10:30:10;;;;;;;14.53;11.77;;;8.80;38.40;;;;;;5014898;28;20224;-86
2022/03/09 10:32:47;;;;;;;15.57;11.97;;;8.80;38.80;;;;;;5019685;28;20680;-86
2022/03/09 10:35:15;;;;;;;14.23;12.73;;;9.10;37.90;;;;;;5018016;28;20213;-86
2022/03/09 10:37:44;;;;;;;15.77;12.20;;;9.10;37.80;;;;;;5016761;28;20197;-86
2022/03/09 10:40:16;;;;;;;13.17;11.60;;;9.40;37.40;;;;;;5013498;28;20222;-86
2022/03/09 10:42:42;;;;;;;14.90;13.30;;;9.70;36.10;;;;;;5008388;28;20217;-86
2022/03/09 10:45:09;;;;;;;13.90;12.60;;;9.90;36.00;;;;;;5017161;28;20902;-86
2022/03/09 10:47:39;;;;;;;14.20;12.77;;;10.20;35.70;;;;;;5016058;28;20259;-86
2022/03/09 10:50:13;;;;;;;14.40;12.60;;;10.30;35.30;;;;;;5008421;28;20209;-86
2022/03/09 10:52:59;;;;;;;17.53;12.90;;;10.40;34.40;;;;;;5021442;28;20198;-86
2022/03/09 10:55:35;;;;;;;14.70;13.03;;;10.70;33.30;;;;;;5012871;28;20691;-86
2022/03/09 10:58:18;;;;;;;28.37;25.97;;;11.00;32.80;;;;;;5015321;28;20249;-85
2022/03/09 11:00:45;;;;;;;14.97;13.10;;;10.60;33.20;;;;;;5005698;28;20209;-85
2022/03/09 11:03:14;;;;;;;16.63;13.80;;;10.80;33.90;;;;;;5018558;28;20245;-85
2022/03/09 11:05:50;;;;;;;28.57;25.97;;;11.20;33.20;;;;;;5019132;28;20190;-85
2022/03/09 11:08:17;;;;;;;15.37;13.87;;;11.30;32.70;;;;;;5015595;28;20276;-85
2022/03/09 11:10:47;;;;;;;14.63;13.13;;;11.20;32.40;;;;;;5006516;28;20260;-85
2022/03/09 11:13:13;;;;;;;14.13;12.73;;;11.50;33.20;;;;;;5019066;28;20230;-85
2022/03/09 11:15:42;;;;;;;14.60;13.20;;;11.50;32.70;;;;;;5015031;28;20235;-85
2022/03/09 11:18:13;;;;;;;14.17;12.70;;;11.80;31.10;;;;;;5012931;28;20204;-85
2022/03/09 11:20:39;;;;;;;14.10;12.80;;;11.40;33.10;;;;;;5019357;28;20753;-85
2022/03/09 11:23:06;;;;;;;15.13;13.70;;;11.20;31.80;;;;;;5030056;28;20217;-85
2022/03/09 11:25:32;;;;;;;16.77;15.03;;;11.90;31.00;;;;;;5025743;28;20239;-86
2022/03/09 11:27:59;;;;;;;19.23;15.90;;;12.30;30.50;;;;;;5015221;28;20293;-85
2022/03/09 11:30:28;;;;;;;16.97;14.37;;;12.30;30.60;;;;;;5014350;28;20224;-85
2022/03/09 11:32:58;;;;;;;16.70;14.90;;;12.50;30.30;;;;;;5013239;28;20202;-85
2022/03/09 11:35:40;;;;;;;18.17;15.13;;;12.60;29.90;;;;;;5016859;28;20229;-86
2022/03/09 11:38:34;;;;;;;15.77;14.17;;;12.50;30.40;;;;;;5011466;28;20194;-86
2022/03/09 11:41:36;;;;;;;17.07;15.17;;;12.50;30.50;;;;;;5019026;28;20207;-86
2022/03/09 11:44:20;;;;;;;17.30;15.60;;;12.50;30.00;;;;;;5011128;28;20703;-86
2022/03/09 11:47:00;;;;;;;16.90;15.10;;;13.00;29.50;;;;;;5022018;28;20204;-86
2022/03/09 11:49:32;;;;;;;16.80;15.10;;;13.20;29.00;;;;;;5014366;28;20207;-86
2022/03/09 11:52:12;;;;;;;18.07;16.27;;;13.30;28.90;;;;;;5017777;28;20263;-86
2022/03/09 11:54:44;;;;;;;18.83;16.77;;;13.60;28.70;;;;;;5019242;28;20199;-85
2022/03/09 11:57:12;;;;;;;18.70;16.80;;;13.70;28.70;;;;;;5018948;28;20193;-86
2022/03/09 11:59:38;;;;;;;20.00;17.97;;;13.30;28.80;;;;;;5018609;28;20281;-87
2022/03/09 12:02:10;;;;;;;18.07;15.80;;;13.00;29.40;;;;;;5014492;28;20209;-86
2022/03/09 12:04:59;;;;;;;18.53;16.53;;;13.40;29.20;;;;;;5037246;28;20198;-86
2022/03/09 12:07:33;;;;;;;17.47;15.67;;;13.30;28.80;;;;;;5028925;28;20221;-86
2022/03/09 12:10:00;;;;;;;21.67;16.87;;;13.30;28.40;;;;;;5029200;28;20187;-86
2022/03/09 12:12:31;;;;;;;19.33;17.33;;;12.90;28.60;;;;;;5021059;28;20581;-86
2022/03/09 12:15:00;;;;;;;18.77;16.70;;;12.50;29.20;;;;;;5016152;28;20219;-85
2022/03/09 12:17:32;;;;;;;22.97;18.70;;;12.90;29.00;;;;;;5022217;28;20197;-86
2022/03/09 12:20:20;;;;;;;20.27;18.27;;;13.60;29.10;;;;;;5034857;28;20186;-86
2022/03/09 12:23:04;;;;;;;20.30;18.23;;;14.00;27.80;;;;;;5013559;28;20186;-86
2022/03/09 12:25:39;;;;;;;19.97;17.63;;;14.40;27.60;;;;;;5019002;28;20239;-87
2022/03/09 12:28:28;;;;;;;21.17;18.40;;;14.80;26.90;;;;;;5022793;28;20250;-86
2022/03/09 12:30:53;;;;;;;41.63;22.83;;;14.80;26.80;;;;;;5020917;28;20713;-86
2022/03/09 12:33:28;;;;;;;22.20;19.80;;;14.50;28.10;;;;;;5021563;28;20194;-86
2022/03/09 12:36:09;;;;;;;21.87;19.10;;;14.70;26.90;;;;;;5021428;28;20321;-86
2022/03/09 12:38:39;;;;;;;21.13;18.93;;;15.20;26.40;;;;;;5013815;28;20227;-86
2022/03/09 12:41:05;;;;;;;20.77;18.53;;;15.00;26.50;;;;;;5021590;28;20248;-87
2022/03/09 12:43:48;;;;;;;22.87;20.47;;;15.40;26.40;;;;;;5018663;28;20281;-87
2022/03/09 12:46:14;;;;;;;22.33;20.13;;;15.90;25.80;;;;;;5022042;28;20236;-86